sensor_id;sensor_type;location;lat;lon;timestamp;P1;durP1;ratioP1;P2;durP2;ratioP2
9775;SDS011;4927;52.472;13.108;2022-10-15T00:03:45;13.80;;;12.45;;
9775;SDS011;4927;52.472;13.108;2022-10-15T00:08:51;12.77;;;11.65;;
9775;SDS011;4927;52.472;13.108;2022-10-15T00:13:58;14.75;;;13.35;;
9775;SDS011;4927;52.472;13.108;2022-10-15T00:19:04;14.38;;;12.95;;
9775;SDS011;4927;52.472;13.108;2022-10-15T00:24:10;13.43;;;12.20;;
9775;SDS011;4927;52.472;13.108;2022-10-15T00:29:16;13.50;;;12.40;;
9775;SDS011;4927;52.472;13.108;2022-10-15T00:34:22;14.60;;;12.85;;
9775;SDS011;4927;52.472;13.108;2022-10-15T00:39:29;13.43;;;12.13;;
9775;SDS011;4927;52.472;13.108;2022-10-15T00:50:14;13.50;;;12.20;;
9775;SDS011;4927;52.472;13.108;2022-10-15T00:55:26;13.68;;;12.45;;
9775;SDS011;4927;52.472;13.108;2022-10-15T01:00:33;14.10;;;12.80;;
9775;SDS011;4927;52.472;13.108;2022-10-15T01:05:39;15.52;;;13.20;;
9775;SDS011;4927;52.472;13.108;2022-10-15T01:10:52;14.85;;;13.30;;
9775;SDS011;4927;52.472;13.108;2022-10-15T01:15:57;13.88;;;12.57;;
9775;SDS011;4927;52.472;13.108;2022-10-15T01:21:06;14.90;;;13.45;;
9775;SDS011;4927;52.472;13.108;2022-10-15T01:31:47;16.85;;;14.10;;
9775;SDS011;4927;52.472;13.108;2022-10-15T01:37:03;17.70;;;14.73;;
9775;SDS011;4927;52.472;13.108;2022-10-15T01:42:21;17.35;;;14.40;;
9775;SDS011;4927;52.472;13.108;2022-10-15T01:47:29;19.98;;;14.50;;
9775;SDS011;4927;52.472;13.108;2022-10-15T01:52:33;16.20;;;14.57;;
9775;SDS011;4927;52.472;13.108;2022-10-15T01:57:39;19.92;;;15.70;;
9775;SDS011;4927;52.472;13.108;2022-10-15T02:02:45;16.45;;;14.85;;
9775;SDS011;4927;52.472;13.108;2022-10-15T02:13:23;16.80;;;15.05;;
9775;SDS011;4927;52.472;13.108;2022-10-15T02:18:28;14.77;;;13.48;;
9775;SDS011;4927;52.472;13.108;2022-10-15T02:28:58;16.70;;;15.00;;
9775;SDS011;4927;52.472;13.108;2022-10-15T02:34:05;19.98;;;15.50;;
9775;SDS011;4927;52.472;13.108;2022-10-15T02:39:11;14.82;;;13.43;;
9775;SDS011;4927;52.472;13.108;2022-10-15T02:44:16;19.37;;;15.07;;
9775;SDS011;4927;52.472;13.108;2022-10-15T02:49:23;20.27;;;16.50;;
9775;SDS011;4927;52.472;13.108;2022-10-15T02:54:29;17.00;;;15.40;;
9775;SDS011;4927;52.472;13.108;2022-10-15T02:59:35;17.00;;;15.30;;
9775;SDS011;4927;52.472;13.108;2022-10-15T03:04:41;22.95;;;15.65;;
9775;SDS011;4927;52.472;13.108;2022-10-15T03:09:48;17.00;;;15.20;;
9775;SDS011;4927;52.472;13.108;2022-10-15T03:14:54;16.50;;;14.70;;
9775;SDS011;4927;52.472;13.108;2022-10-15T03:20:00;16.10;;;14.70;;
9775;SDS011;4927;52.472;13.108;2022-10-15T03:25:07;16.42;;;14.73;;
9775;SDS011;4927;52.472;13.108;2022-10-15T03:30:13;17.73;;;15.18;;
9775;SDS011;4927;52.472;13.108;2022-10-15T03:35:17;14.38;;;13.05;;
9775;SDS011;4927;52.472;13.108;2022-10-15T03:40:22;14.82;;;13.45;;
9775;SDS011;4927;52.472;13.108;2022-10-15T03:45:28;14.60;;;12.70;;
9775;SDS011;4927;52.472;13.108;2022-10-15T03:50:34;15.75;;;13.65;;
9775;SDS011;4927;52.472;13.108;2022-10-15T03:55:40;13.60;;;12.30;;
9775;SDS011;4927;52.472;13.108;2022-10-15T04:00:47;13.30;;;12.10;;
9775;SDS011;4927;52.472;13.108;2022-10-15T04:05:54;11.95;;;10.85;;
9775;SDS011;4927;52.472;13.108;2022-10-15T04:11:01;13.65;;;12.43;;
9775;SDS011;4927;52.472;13.108;2022-10-15T04:16:07;12.70;;;11.70;;
9775;SDS011;4927;52.472;13.108;2022-10-15T04:21:14;12.30;;;11.30;;
9775;SDS011;4927;52.472;13.108;2022-10-15T04:26:20;11.73;;;10.80;;
9775;SDS011;4927;52.472;13.108;2022-10-15T04:31:27;13.10;;;12.00;;
9775;SDS011;4927;52.472;13.108;2022-10-15T04:36:33;12.80;;;11.70;;
9775;SDS011;4927;52.472;13.108;2022-10-15T04:41:39;14.30;;;13.00;;
9775;SDS011;4927;52.472;13.108;2022-10-15T04:46:45;14.50;;;13.10;;
9775;SDS011;4927;52.472;13.108;2022-10-15T04:51:52;14.10;;;12.65;;
9775;SDS011;4927;52.472;13.108;2022-10-15T04:56:58;11.63;;;10.73;;
9775;SDS011;4927;52.472;13.108;2022-10-15T05:02:04;11.57;;;10.68;;
9775;SDS011;4927;52.472;13.108;2022-10-15T05:07:10;12.40;;;11.40;;
9775;SDS011;4927;52.472;13.108;2022-10-15T05:12:17;11.40;;;10.50;;
9775;SDS011;4927;52.472;13.108;2022-10-15T05:17:21;11.75;;;10.65;;
9775;SDS011;4927;52.472;13.108;2022-10-15T05:22:27;12.30;;;11.20;;
9775;SDS011;4927;52.472;13.108;2022-10-15T05:27:34;11.45;;;10.55;;
9775;SDS011;4927;52.472;13.108;2022-10-15T05:32:40;10.40;;;9.70;;
9775;SDS011;4927;52.472;13.108;2022-10-15T05:37:47;11.00;;;9.90;;
9775;SDS011;4927;52.472;13.108;2022-10-15T05:42:52;10.82;;;9.93;;
9775;SDS011;4927;52.472;13.108;2022-10-15T05:47:59;11.25;;;10.45;;
9775;SDS011;4927;52.472;13.108;2022-10-15T05:53:03;9.75;;;9.15;;
9775;SDS011;4927;52.472;13.108;2022-10-15T05:58:09;10.00;;;9.40;;
9775;SDS011;4927;52.472;13.108;2022-10-15T06:03:15;9.50;;;8.98;;
9775;SDS011;4927;52.472;13.108;2022-10-15T06:08:22;10.52;;;9.73;;
9775;SDS011;4927;52.472;13.108;2022-10-15T06:13:29;11.00;;;10.20;;
9775;SDS011;4927;52.472;13.108;2022-10-15T06:18:36;10.90;;;10.20;;
9775;SDS011;4927;52.472;13.108;2022-10-15T06:23:42;11.18;;;10.20;;
9775;SDS011;4927;52.472;13.108;2022-10-15T06:28:49;12.20;;;11.20;;
9775;SDS011;4927;52.472;13.108;2022-10-15T06:33:55;11.43;;;10.52;;
9775;SDS011;4927;52.472;13.108;2022-10-15T06:39:02;11.10;;;10.10;;
9775;SDS011;4927;52.472;13.108;2022-10-15T06:44:08;11.05;;;10.35;;
9775;SDS011;4927;52.472;13.108;2022-10-15T06:49:15;35.17;;;28.12;;
9775;SDS011;4927;52.472;13.108;2022-10-15T06:54:21;16.10;;;14.52;;
9775;SDS011;4927;52.472;13.108;2022-10-15T06:59:27;13.62;;;12.32;;
9775;SDS011;4927;52.472;13.108;2022-10-15T07:04:33;17.05;;;13.80;;
9775;SDS011;4927;52.472;13.108;2022-10-15T07:09:40;15.40;;;13.70;;
9775;SDS011;4927;52.472;13.108;2022-10-15T07:14:46;13.25;;;12.15;;
9775;SDS011;4927;52.472;13.108;2022-10-15T07:19:52;11.20;;;10.50;;
9775;SDS011;4927;52.472;13.108;2022-10-15T07:24:58;11.85;;;10.95;;
9775;SDS011;4927;52.472;13.108;2022-10-15T07:30:03;11.98;;;10.98;;
9775;SDS011;4927;52.472;13.108;2022-10-15T07:35:10;10.27;;;9.50;;
9775;SDS011;4927;52.472;13.108;2022-10-15T07:40:17;10.90;;;10.00;;
9775;SDS011;4927;52.472;13.108;2022-10-15T07:45:23;10.30;;;9.40;;
9775;SDS011;4927;52.472;13.108;2022-10-15T07:50:29;10.18;;;9.30;;
9775;SDS011;4927;52.472;13.108;2022-10-15T07:55:35;10.48;;;9.65;;
9775;SDS011;4927;52.472;13.108;2022-10-15T08:00:41;10.70;;;9.75;;
9775;SDS011;4927;52.472;13.108;2022-10-15T08:05:48;10.90;;;9.80;;
9775;SDS011;4927;52.472;13.108;2022-10-15T08:10:54;9.25;;;8.63;;
9775;SDS011;4927;52.472;13.108;2022-10-15T08:16:00;9.38;;;8.77;;
9775;SDS011;4927;52.472;13.108;2022-10-15T08:21:07;7.95;;;7.55;;
9775;SDS011;4927;52.472;13.108;2022-10-15T08:26:13;7.57;;;7.10;;
9775;SDS011;4927;52.472;13.108;2022-10-15T08:31:19;7.95;;;7.45;;
9775;SDS011;4927;52.472;13.108;2022-10-15T08:36:25;7.85;;;7.25;;
9775;SDS011;4927;52.472;13.108;2022-10-15T08:41:36;9.85;;;9.05;;
9775;SDS011;4927;52.472;13.108;2022-10-15T08:46:42;8.60;;;8.10;;
9775;SDS011;4927;52.472;13.108;2022-10-15T08:51:49;8.43;;;7.75;;
9775;SDS011;4927;52.472;13.108;2022-10-15T08:56:59;11.10;;;10.30;;
9775;SDS011;4927;52.472;13.108;2022-10-15T09:02:02;8.80;;;8.20;;
9775;SDS011;4927;52.472;13.108;2022-10-15T09:07:25;9.77;;;8.65;;
9775;SDS011;4927;52.472;13.108;2022-10-15T09:12:41;8.88;;;8.18;;
9775;SDS011;4927;52.472;13.108;2022-10-15T09:18:02;9.10;;;8.50;;
9775;SDS011;4927;52.472;13.108;2022-10-15T09:23:12;8.85;;;8.25;;
9775;SDS011;4927;52.472;13.108;2022-10-15T09:28:15;7.60;;;7.00;;
9775;SDS011;4927;52.472;13.108;2022-10-15T09:33:34;7.85;;;7.30;;
9775;SDS011;4927;52.472;13.108;2022-10-15T09:38:58;10.98;;;10.15;;
9775;SDS011;4927;52.472;13.108;2022-10-15T09:44:04;8.77;;;8.02;;
9775;SDS011;4927;52.472;13.108;2022-10-15T09:49:12;10.55;;;9.65;;
9775;SDS011;4927;52.472;13.108;2022-10-15T10:05:16;8.25;;;7.20;;
9775;SDS011;4927;52.472;13.108;2022-10-15T10:34:40;83.50;;;40.10;;
9775;SDS011;4927;52.472;13.108;2022-10-15T10:45:16;14.60;;;12.45;;
9775;SDS011;4927;52.472;13.108;2022-10-15T10:50:28;39.17;;;25.95;;
9775;SDS011;4927;52.472;13.108;2022-10-15T10:55:36;34.42;;;22.90;;
9775;SDS011;4927;52.472;13.108;2022-10-15T11:00:40;14.93;;;10.98;;
9775;SDS011;4927;52.472;13.108;2022-10-15T11:05:46;8.90;;;8.20;;
9775;SDS011;4927;52.472;13.108;2022-10-15T11:10:55;21.52;;;16.40;;
9775;SDS011;4927;52.472;13.108;2022-10-15T11:32:38;7.90;;;7.40;;
9775;SDS011;4927;52.472;13.108;2022-10-15T11:43:11;7.57;;;6.75;;
9775;SDS011;4927;52.472;13.108;2022-10-15T11:48:32;6.35;;;6.05;;
9775;SDS011;4927;52.472;13.108;2022-10-15T11:53:45;8.70;;;5.50;;
9775;SDS011;4927;52.472;13.108;2022-10-15T11:59:18;5.68;;;5.07;;
9775;SDS011;4927;52.472;13.108;2022-10-15T12:04:32;5.30;;;4.95;;
9775;SDS011;4927;52.472;13.108;2022-10-15T12:09:56;6.20;;;4.20;;
9775;SDS011;4927;52.472;13.108;2022-10-15T12:15:09;5.85;;;4.35;;
9775;SDS011;4927;52.472;13.108;2022-10-15T12:20:19;4.40;;;4.20;;
9775;SDS011;4927;52.472;13.108;2022-10-15T12:30:52;4.50;;;4.30;;
9775;SDS011;4927;52.472;13.108;2022-10-15T12:35:59;8.65;;;5.40;;
9775;SDS011;4927;52.472;13.108;2022-10-15T12:41:06;4.50;;;4.30;;
9775;SDS011;4927;52.472;13.108;2022-10-15T12:46:13;6.32;;;4.10;;
9775;SDS011;4927;52.472;13.108;2022-10-15T12:56:38;5.10;;;3.70;;
9775;SDS011;4927;52.472;13.108;2022-10-15T13:07:01;3.50;;;3.30;;
9775;SDS011;4927;52.472;13.108;2022-10-15T13:12:03;3.30;;;3.10;;
9775;SDS011;4927;52.472;13.108;2022-10-15T13:17:14;5.10;;;4.60;;
9775;SDS011;4927;52.472;13.108;2022-10-15T13:22:35;3.28;;;3.08;;
9775;SDS011;4927;52.472;13.108;2022-10-15T13:27:41;2.45;;;2.30;;
9775;SDS011;4927;52.472;13.108;2022-10-15T13:32:48;4.65;;;3.53;;
9775;SDS011;4927;52.472;13.108;2022-10-15T13:37:56;3.60;;;1.92;;
9775;SDS011;4927;52.472;13.108;2022-10-15T13:43:03;1.95;;;1.85;;
9775;SDS011;4927;52.472;13.108;2022-10-15T13:48:10;2.10;;;1.60;;
9775;SDS011;4927;52.472;13.108;2022-10-15T13:53:21;5.12;;;2.10;;
9775;SDS011;4927;52.472;13.108;2022-10-15T13:58:29;2.20;;;2.10;;
9775;SDS011;4927;52.472;13.108;2022-10-15T14:03:36;5.05;;;4.25;;
9775;SDS011;4927;52.472;13.108;2022-10-15T14:08:42;4.12;;;2.90;;
9775;SDS011;4927;52.472;13.108;2022-10-15T14:13:49;5.40;;;5.00;;
9775;SDS011;4927;52.472;13.108;2022-10-15T14:18:56;5.90;;;5.50;;
9775;SDS011;4927;52.472;13.108;2022-10-15T14:24:12;3.40;;;2.50;;
9775;SDS011;4927;52.472;13.108;2022-10-15T14:29:23;7.20;;;5.10;;
9775;SDS011;4927;52.472;13.108;2022-10-15T14:39:47;2.70;;;2.60;;
9775;SDS011;4927;52.472;13.108;2022-10-15T14:44:54;3.40;;;2.05;;
9775;SDS011;4927;52.472;13.108;2022-10-15T14:50:00;6.20;;;2.60;;
9775;SDS011;4927;52.472;13.108;2022-10-15T14:55:11;4.37;;;2.40;;
9775;SDS011;4927;52.472;13.108;2022-10-15T15:00:16;5.90;;;1.90;;
9775;SDS011;4927;52.472;13.108;2022-10-15T15:05:52;2.20;;;2.10;;
9775;SDS011;4927;52.472;13.108;2022-10-15T15:10:59;3.80;;;3.00;;
9775;SDS011;4927;52.472;13.108;2022-10-15T15:16:04;4.40;;;4.10;;
9775;SDS011;4927;52.472;13.108;2022-10-15T15:21:13;9.88;;;5.12;;
9775;SDS011;4927;52.472;13.108;2022-10-15T15:26:18;4.82;;;2.80;;
9775;SDS011;4927;52.472;13.108;2022-10-15T15:31:24;4.30;;;3.90;;
9775;SDS011;4927;52.472;13.108;2022-10-15T15:36:31;16.35;;;13.00;;
9775;SDS011;4927;52.472;13.108;2022-10-15T15:41:38;6.93;;;6.53;;
9775;SDS011;4927;52.472;13.108;2022-10-15T15:46:44;5.25;;;5.05;;
9775;SDS011;4927;52.472;13.108;2022-10-15T15:51:50;3.30;;;3.20;;
9775;SDS011;4927;52.472;13.108;2022-10-15T15:56:57;2.85;;;2.75;;
9775;SDS011;4927;52.472;13.108;2022-10-15T16:02:03;5.57;;;5.20;;
9775;SDS011;4927;52.472;13.108;2022-10-15T16:07:09;3.10;;;3.00;;
9775;SDS011;4927;52.472;13.108;2022-10-15T16:12:15;2.87;;;2.70;;
9775;SDS011;4927;52.472;13.108;2022-10-15T16:17:22;3.30;;;3.10;;
9775;SDS011;4927;52.472;13.108;2022-10-15T16:22:28;3.53;;;3.22;;
9775;SDS011;4927;52.472;13.108;2022-10-15T16:27:35;3.40;;;3.30;;
9775;SDS011;4927;52.472;13.108;2022-10-15T16:32:41;2.30;;;2.20;;
9775;SDS011;4927;52.472;13.108;2022-10-15T16:37:48;2.50;;;2.40;;
9775;SDS011;4927;52.472;13.108;2022-10-15T16:42:54;2.50;;;2.10;;
9775;SDS011;4927;52.472;13.108;2022-10-15T16:48:00;2.80;;;2.60;;
9775;SDS011;4927;52.472;13.108;2022-10-15T16:53:06;3.28;;;2.50;;
9775;SDS011;4927;52.472;13.108;2022-10-15T16:58:13;2.85;;;2.75;;
9775;SDS011;4927;52.472;13.108;2022-10-15T17:03:19;15.88;;;12.40;;
9775;SDS011;4927;52.472;13.108;2022-10-15T17:08:27;3.70;;;3.50;;
9775;SDS011;4927;52.472;13.108;2022-10-15T17:13:32;4.35;;;4.20;;
9775;SDS011;4927;52.472;13.108;2022-10-15T17:18:39;6.10;;;5.70;;
9775;SDS011;4927;52.472;13.108;2022-10-15T17:23:45;4.20;;;4.00;;
9775;SDS011;4927;52.472;13.108;2022-10-15T17:28:51;4.28;;;3.40;;
9775;SDS011;4927;52.472;13.108;2022-10-15T17:33:58;3.85;;;3.55;;
9775;SDS011;4927;52.472;13.108;2022-10-15T17:39:03;4.60;;;4.00;;
9775;SDS011;4927;52.472;13.108;2022-10-15T17:44:09;6.87;;;6.47;;
9775;SDS011;4927;52.472;13.108;2022-10-15T17:49:17;4.10;;;3.90;;
9775;SDS011;4927;52.472;13.108;2022-10-15T17:54:24;3.45;;;3.35;;
9775;SDS011;4927;52.472;13.108;2022-10-15T17:59:30;3.05;;;2.95;;
9775;SDS011;4927;52.472;13.108;2022-10-15T18:04:37;3.37;;;3.28;;
9775;SDS011;4927;52.472;13.108;2022-10-15T18:09:43;3.70;;;3.60;;
9775;SDS011;4927;52.472;13.108;2022-10-15T18:14:50;3.70;;;3.60;;
9775;SDS011;4927;52.472;13.108;2022-10-15T18:19:56;4.07;;;3.78;;
9775;SDS011;4927;52.472;13.108;2022-10-15T18:25:02;4.03;;;3.70;;
9775;SDS011;4927;52.472;13.108;2022-10-15T18:30:09;5.10;;;4.80;;
9775;SDS011;4927;52.472;13.108;2022-10-15T18:35:13;4.60;;;4.40;;
9775;SDS011;4927;52.472;13.108;2022-10-15T18:40:20;5.00;;;4.70;;
9775;SDS011;4927;52.472;13.108;2022-10-15T18:45:24;4.22;;;4.03;;
9775;SDS011;4927;52.472;13.108;2022-10-15T18:50:31;4.05;;;3.85;;
9775;SDS011;4927;52.472;13.108;2022-10-15T18:55:37;4.37;;;3.97;;
9775;SDS011;4927;52.472;13.108;2022-10-15T19:00:44;4.12;;;3.83;;
9775;SDS011;4927;52.472;13.108;2022-10-15T19:05:50;3.30;;;3.00;;
9775;SDS011;4927;52.472;13.108;2022-10-15T19:11:02;3.40;;;3.30;;
9775;SDS011;4927;52.472;13.108;2022-10-15T19:16:07;3.60;;;3.30;;
9775;SDS011;4927;52.472;13.108;2022-10-15T19:21:12;5.95;;;4.00;;
9775;SDS011;4927;52.472;13.108;2022-10-15T19:26:18;3.20;;;3.10;;
9775;SDS011;4927;52.472;13.108;2022-10-15T19:31:27;3.20;;;3.10;;
9775;SDS011;4927;52.472;13.108;2022-10-15T19:36:33;4.10;;;3.80;;
9775;SDS011;4927;52.472;13.108;2022-10-15T19:41:37;4.12;;;3.92;;
9775;SDS011;4927;52.472;13.108;2022-10-15T19:46:43;3.25;;;3.15;;
9775;SDS011;4927;52.472;13.108;2022-10-15T19:51:49;2.67;;;2.47;;
9775;SDS011;4927;52.472;13.108;2022-10-15T19:56:55;4.10;;;3.80;;
9775;SDS011;4927;52.472;13.108;2022-10-15T20:02:00;3.35;;;3.03;;
9775;SDS011;4927;52.472;13.108;2022-10-15T20:07:06;3.10;;;3.00;;
9775;SDS011;4927;52.472;13.108;2022-10-15T20:12:12;3.00;;;2.90;;
9775;SDS011;4927;52.472;13.108;2022-10-15T20:17:16;3.75;;;2.92;;
9775;SDS011;4927;52.472;13.108;2022-10-15T20:22:23;2.90;;;2.70;;
9775;SDS011;4927;52.472;13.108;2022-10-15T20:27:29;3.42;;;2.95;;
9775;SDS011;4927;52.472;13.108;2022-10-15T20:32:35;5.00;;;2.70;;
9775;SDS011;4927;52.472;13.108;2022-10-15T20:37:42;3.28;;;2.50;;
9775;SDS011;4927;52.472;13.108;2022-10-15T20:42:48;4.37;;;2.80;;
9775;SDS011;4927;52.472;13.108;2022-10-15T20:47:54;3.20;;;2.90;;
9775;SDS011;4927;52.472;13.108;2022-10-15T20:52:58;2.80;;;2.70;;
9775;SDS011;4927;52.472;13.108;2022-10-15T20:58:05;3.33;;;3.10;;
9775;SDS011;4927;52.472;13.108;2022-10-15T21:03:11;3.00;;;2.90;;
9775;SDS011;4927;52.472;13.108;2022-10-15T21:08:17;2.65;;;2.55;;
9775;SDS011;4927;52.472;13.108;2022-10-15T21:13:24;3.00;;;2.80;;
9775;SDS011;4927;52.472;13.108;2022-10-15T21:18:31;5.00;;;2.85;;
9775;SDS011;4927;52.472;13.108;2022-10-15T21:23:37;3.05;;;2.85;;
9775;SDS011;4927;52.472;13.108;2022-10-15T21:28:44;3.00;;;2.80;;
9775;SDS011;4927;52.472;13.108;2022-10-15T21:33:50;3.67;;;2.75;;
9775;SDS011;4927;52.472;13.108;2022-10-15T21:38:58;3.17;;;3.08;;
9775;SDS011;4927;52.472;13.108;2022-10-15T21:46:20;3.00;;;2.90;;
9775;SDS011;4927;52.472;13.108;2022-10-15T21:51:28;2.90;;;2.70;;
9775;SDS011;4927;52.472;13.108;2022-10-15T21:56:33;3.10;;;2.90;;
9775;SDS011;4927;52.472;13.108;2022-10-15T22:01:39;2.60;;;2.40;;
9775;SDS011;4927;52.472;13.108;2022-10-15T22:06:45;2.20;;;2.20;;
9775;SDS011;4927;52.472;13.108;2022-10-15T22:11:52;2.78;;;2.67;;
9775;SDS011;4927;52.472;13.108;2022-10-15T22:16:59;5.00;;;2.50;;
9775;SDS011;4927;52.472;13.108;2022-10-15T22:22:05;9.77;;;2.60;;
9775;SDS011;4927;52.472;13.108;2022-10-15T22:27:11;2.58;;;2.10;;
9775;SDS011;4927;52.472;13.108;2022-10-15T22:32:15;5.90;;;2.95;;
9775;SDS011;4927;52.472;13.108;2022-10-15T22:37:22;2.62;;;2.50;;
9775;SDS011;4927;52.472;13.108;2022-10-15T22:42:28;3.45;;;2.20;;
9775;SDS011;4927;52.472;13.108;2022-10-15T22:47:34;2.50;;;2.10;;
9775;SDS011;4927;52.472;13.108;2022-10-15T22:52:40;1.90;;;1.90;;
9775;SDS011;4927;52.472;13.108;2022-10-15T22:57:47;2.50;;;2.30;;
9775;SDS011;4927;52.472;13.108;2022-10-15T23:02:51;2.08;;;2.08;;
9775;SDS011;4927;52.472;13.108;2022-10-15T23:07:57;2.30;;;2.10;;
9775;SDS011;4927;52.472;13.108;2022-10-15T23:13:03;3.08;;;2.42;;
9775;SDS011;4927;52.472;13.108;2022-10-15T23:18:10;3.58;;;3.40;;
9775;SDS011;4927;52.472;13.108;2022-10-15T23:23:17;3.70;;;1.90;;
9775;SDS011;4927;52.472;13.108;2022-10-15T23:28:23;2.00;;;2.00;;
9775;SDS011;4927;52.472;13.108;2022-10-15T23:33:30;2.20;;;2.10;;
9775;SDS011;4927;52.472;13.108;2022-10-15T23:38:37;2.42;;;2.33;;
9775;SDS011;4927;52.472;13.108;2022-10-15T23:43:43;1.98;;;1.87;;
9775;SDS011;4927;52.472;13.108;2022-10-15T23:48:50;2.53;;;2.33;;
9775;SDS011;4927;52.472;13.108;2022-10-15T23:53:55;9.10;;;2.30;;
9775;SDS011;4927;52.472;13.108;2022-10-15T23:58:59;1.95;;;1.95;;
